< < Back
Terminal Aerodrome Forecast


Current Version              Previous Versions:   1  2  3  4  5  6  7  8  9  

Terminal Aerodrome Forecast

603
FTUS42 KGSP 271730 AAA
TAFAND
TAF AMD
KAND 271730Z 2718/2812 30009G17KT P6SM FEW050 SCT100
     FM280200 31003KT P6SM SKC=



Latest METAR

307
SAUS70 KWBC 271900 RRA
MTRAND
METAR KAND 271856Z AUTO 30006KT 10SM SCT050 09/M03 A2987 RMK AO2 SLP115
T00941033


USA.gov is the U.S. government's official web portal to all federal, state and local government web resources and services.